Terminal Aerodrome Forecast
Issued by NWS Twin Cities, MN

Home | Current Version | Previous Version | Text Only | Print | Product List | Glossary On
Versions: 1 2 3 4 5 6 7 8 9 10 11 12 13 14
721
FTUS43 KMPX 290617 AAA
TAFEAU
TAF AMD
KEAU 290617Z 2906/3006 26006KT P6SM BKN027
      TEMPO 2910/2914 BKN012
     FM291500 28008KT P6SM SCT010 BKN025
     FM291800 29008KT P6SM SCT020 BKN040
     FM300200 04004KT P6SM BKN110=

USA.gov is the U.S. government's official web portal to all federal, state and local government web resources and services.